KBVI

Details ICAO KBVI
Name BEAVER CO
Region United States
Timezone America/New_York (UTC-5.0)
Plans Departing 7
Arriving 3
Stats Elevation 1,253 ft / 382 m (AMSL)
Location 40.772470° -80.391430°
Runways 1
Magnetic Variation 9.104° W
Sunrise 2017-12-17 12:41:31 UTC / 2017-12-17 07:41:31 Local
Sunset 2017-12-17 21:56:48 UTC / 2017-12-17 16:56:48 Local
Advertisement - Login to hide

Runways

ID Width Length Bearing (true) Bearing (mag) Surface Threshold Offset Overrun Length
10 100 ft / 30 m 4,490 ft / 1,369 m 93.84° 102.94° Asphalt 0 ft / 0 m 0 ft / 0 m
28 100 ft / 30 m 4,490 ft / 1,369 m 273.85° 282.95° Asphalt 0 ft / 0 m 0 ft / 0 m

Map

Weather


0- 5 10 15 20 25 30 35+ Temperature / ° C

Clouds and Precipitation
Forecast for 2017-12-17 12:00 UTC. Updated an hour ago

Ground ~20,000 ft ~40,000 ft Winds

METAR

Not found

TAF

KBVI 171128Z 1712/1812 19003KT P6SM BKN200 FM172200 20005KT P6SM OVC030 FM180700 22004KT 5SM BR BKN025 AMD NOT SKED

Frequencies

Recorded 118.35 MHz ATIS
Clearance 124.85 MHz PITTSBURGH CLNC DEL
Tower 120.30 MHz TWR
Unicom 120.30 MHz CTAF
Ground 121.80 MHz GND
Approach 124.75 MHz PITTSBURGH APP/DEP
Warning: Do not use this data for real-world aviation or navigation. No guarantee of current accuracy is given.